Airport View

Enter AWOS ICAO identifier for current METAR.

ex. KFNL

KONT 210053Z 24011KT 10SM CLR 26/13 A2982 RMK AO2 SLP085 T02560133

21 Sep 2019 01:22

Phone: 909-937-2186

Other Area AWOS: KCNO - KPOC - KAJO - KRAL

TAF KONT 202320Z 2100/2206 25011KT P6SM SKC FM210500 VRB04KT P6SM SKC FM212100 26009KT P6SM SKC FM220400 VRB04KT P6SM SKC